Palava, Texas
Current Conditions -  °F | °C
As of 11:15 PM on Saturday 20 Dec 2014 (Local Time) from KSWW Reporting Station
Clear Clear  
Wind Chill: 39°   Ceiling: Unl
Heat Index: 45°   Visibility: 10mi
Dew Point: 41°   Wind: 14mph
Humidity: 86%   Direction: 150°SSE
Pressure: 30.11"   Gusts: NA
Location:  32.5104°N, 100.305°W
Report Text: KSWW 210515Z AUTO 15012KT 10SM CLR 07/05 A3011 RMK AO2 T00720050
Loading
Personal Weather Stations






























Interactive Weather Map New forecast layout! Learn more

10-Day Weather Forecast

Advertisements
Track Severe Weather on mobile